Tiempo atmosférico en la estación meteorológica de Los Tojos, Bárcena Mayor, Cantabria (455 m.)



Fecha
DESCASC
Temp. máxima en grados centígrados (hora)
DESCASC
Temp. mínima en grados centígrados (hora)
DESCASC
Temp. media en grados centígrados
DESCASC
Racha de viento máxima en m/sg (hora)
DESCASC
Velocidad máxima media en intervalos de 10 minutos(hora)
DESCASC
Precipitaciones diarias en mm
DESCASC
Precipitaciones de 00:00 a 06:00 en mm
DESCASC
Precipitaciones de 06:00 a 12:00 en mm
DESCASC
Precipitaciones de 12:00 a 18:00 en mm
DESCASC
Precipitaciones de 18:00 a 24:00 en mm
DESCASC
10-11-2019 7 (17:20) 4.3 (00:00) 5.7 15 (13:20) 6.39 (13:30) 45.4 2.4 19.8 18 5.2
09-11-2019 15.1 (14:30) 5.2 (00:00) 10.2 13.61 (19:00) 6.11 (18:40) 26 0 3 0 23
08-11-2019 9.7 (14:50) 3.6 (00:00) 6.6 11.11 (11:00) 5 (15:00) 11.2 7 3.2 1 0
07-11-2019 10.8 (13:30) 2.9 (00:00) 6.9 10.28 (08:40) 4.17 (02:00) 3.8 3 0.2 0.4 0.2
06-11-2019 14.3 (14:40) 7.1 (00:00) 10.7 9.44 (00:10) 4.44 (00:10) 5.8 0.8 0.4 0 4.6
05-11-2019 10.4 (14:30) 3.5 (00:00) 6.9 9.17 (16:20) 3.33 (17:30) 19.8 0 4.8 8.2 6.8
04-11-2019 12.9 (11:00) 4.6 (00:00) 8.7 7.78 (11:20) 3.61 (11:20) 5.6 0 1.8 3.8 0
03-11-2019 17 (14:50) 8.2 (00:00) 12.6 16.39 (07:10) 5.56 (05:10) 1.4 0.2 0.8 0 0.4
02-11-2019 15.4 (13:20) 10.9 (00:00) 13.1 7.78 (23:10) 2.78 (13:40) 0.2 0 0.2 0 0
01-11-2019 18.5 (13:50) 11.4 (00:00) 14.9 3.06 (21:00) 1.11 (02:00) 3.2 0 0.2 3 0
31-10-2019 20.1 (14:00) 10.7 (06:40) 15.4 3.06 (13:40) 1.39 (13:20) 0 0 0 0 0
30-10-2019 18.8 (14:50) 7 (00:00) 12.9 5.56 (14:10) 2.78 (14:20) 1.2 0 0 0 1.2
29-10-2019 19 (14:40) 7.9 (00:00) 13.5 4.72 (14:20) 2.22 (14:20) 0 0 0 0 0
28-10-2019 21 (13:10) 9.3 (00:00) 15.2 3.33 (12:40) 1.11 (12:40) 0 0 0 0 0
27-10-2019 20.2 (13:20) 5.9 (00:00) 13.1 2.22 (23:30) 0.83 (23:20) 0 0 0 0 0
26-10-2019 20.4 (15:40) 4.1 (00:00) 12.2 2.78 (04:40) 1.39 (04:40) 0 0 0 0 0
25-10-2019 20.3 (15:30) 5.1 (00:00) 12.7 4.44 (15:10) 1.94 (15:20) 0 0 0 0 0
24-10-2019 16.2 (16:00) 7.1 (00:00) 11.7 4.17 (16:40) 1.67 (16:20) 7.8 6.6 1 0.2 0
23-10-2019 12.3 (15:50) 8.3 (00:00) 10.3 7.5 (06:10) 2.78 (07:00) 81.8 15 44.4 11.8 10.6
22-10-2019 10.4 (17:50) 2.2 (00:00) 6.3 8.89 (19:30) 3.06 (19:40) 14 0 0 0.8 13.2
21-10-2019 14 (13:40) 3.8 (00:00) 8.9 4.17 (17:50) 1.67 (13:40) 1.2 0 0 1 0.2
20-10-2019 10.4 (00:20) 6.1 (00:00) 8.2 5.56 (05:10) 2.22 (05:10) 27.2 10.2 6.2 7.6 3.2
19-10-2019 14.2 (14:20) 9.8 (00:00) 12 8.33 (05:40) 3.06 (04:10) 25.2 1.4 0.4 3.6 19.8
18-10-2019 16.6 (16:10) 10.9 (00:00) 13.8 3.33 (16:30) 1.39 (16:30) 0.6 0 0.6 0 0
17-10-2019 21.9 (13:40) 10.2 (00:00) 16 7.22 (06:50) 3.33 (06:50) 0.4 0.2 0 0 0.2
16-10-2019 21.8 (14:20) 9.2 (00:00) 15.5 8.33 (21:20) 3.61 (20:50) 3.4 0 0.2 0 3.2
15-10-2019 17.5 (15:30) 3.4 (00:00) 10.5 7.22 (20:20) 3.61 (21:00) 0 0 0 0 0

Gráficas

Temp. máximas Temp. mínimas Temp. medias Precipitaciones Rachas de viento máximas Velocidades máximas media en intervalos de 10 minutos

Datos horarios

Fecha y hora oficial Temperatura (ºC) Velocidad del viento (km/h) Dirección del viento Racha (km/h) Dirección de racha Precipitación (mm) Presión (hPa) Tendencia (hPa) Humedad (%)
2019-11-13 23:00:00 5.5 3 Sudoeste 7 Sudoeste 0 -- -- 100
2019-11-13 22:00:00 6.2 0 Calma 8 Este 0 -- -- 100
2019-11-13 21:00:00 7.6 4 Sudeste 9 Nordeste 0 -- -- 100
2019-11-13 20:00:00 8.1 0 Calma 4 Sudeste 0 -- -- 100
2019-11-13 19:00:00 8.2 3 Sur 6 Este 0 -- -- 100
2019-11-13 18:00:00 8.4 2 Sudoeste 4 Sur 0 -- -- 100
2019-11-13 17:00:00 9.2 3 Oeste 5 Oeste 0 -- -- 98
2019-11-13 16:00:00 10 0 Calma 4 Nordeste 0 -- -- 96
2019-11-13 15:00:00 9.9 3 Este 5 Sudeste 0 -- -- 96
2019-11-13 14:00:00 9.4 0 Calma 10 Oeste 0.2 -- -- 98
2019-11-13 13:00:00 9 4 Oeste 16 Sudoeste 0.2 -- -- 100
2019-11-13 12:00:00 9 6 Oeste 17 Noroeste 1.2 -- -- 99
2019-11-13 11:00:00 8.7 3 Noroeste 11 Oeste 1.8 -- -- 100
2019-11-13 10:00:00 8.4 5 Oeste 15 Oeste 1 -- -- 100
2019-11-13 09:00:00 7.7 3 Noroeste 5 Noroeste 2.2 -- -- 100
2019-11-13 08:00:00 7.8 0 Calma 17 Oeste 2.2 -- -- 100
2019-11-13 07:00:00 8.5 9 Sudoeste 31 Sudoeste 5.4 -- -- 97
2019-11-13 06:00:00 8.5 3 Sudoeste 11 Oeste 4 -- -- 100
2019-11-13 05:00:00 8.4 3 Sudoeste 10 Oeste 3.2 -- -- 100
2019-11-13 04:00:00 8.5 4 Oeste 21 Oeste 3.4 -- -- 100
2019-11-13 03:00:00 8.4 7 Sudoeste 19 Noroeste 3.8 -- -- 100
2019-11-13 02:00:00 7.9 0 Calma 3 Norte 3 -- -- 100
2019-11-13 01:00:00 8 0 Calma 4 Este 1.2 -- -- 100
2019-11-13 00:00:00 7.9 0 Calma 5 Este 1.4 -- -- 100
2019-11-12 23:00:00 7.9 0 Calma -- -- 0.6 -- -- 100
2019-11-12 22:00:00 8 0 Calma 3 Sur 1 -- -- 100
2019-11-12 21:00:00 8.1 0 Calma 6 Este 0.8 -- -- 100
2019-11-12 20:00:00 8.4 0 Calma -- -- 1.4 -- -- 100
2019-11-12 19:00:00 8.7 0 Calma -- -- 1.4 -- -- 100
2019-11-12 18:00:00 9.1 0 Calma 4 Sudoeste 0.6 -- -- 99
2019-11-12 17:00:00 9.9 0 Calma 6 Oeste 0.6 -- -- 97
2019-11-12 16:00:00 10.7 3 Oeste 6 Oeste 0 -- -- 92
2019-11-12 15:00:00 11.9 0 Calma 5 Norte 0 -- -- 80
2019-11-12 14:00:00 11.8 3 Oeste 8 Sudoeste 0 -- -- 70
2019-11-12 13:00:00 11 0 Calma 3 Sur 0 -- -- 75
2019-11-12 12:00:00 9 0 Calma 5 Sur 0 -- -- 98
2019-11-12 11:00:00 7.5 3 Sur 7 Sur 0 -- -- 100
2019-11-12 10:00:00 6.3 2 Sur 6 Sudeste 0 -- -- 100
2019-11-12 09:00:00 5.5 0 Calma -- -- 0 -- -- 100
2019-11-12 08:00:00 5.2 0 Calma -- -- 0 -- -- 100
2019-11-12 07:00:00 5 0 Calma -- -- 0 -- -- 100
2019-11-12 06:00:00 4.7 0 Calma -- -- 0 -- -- 100
2019-11-12 05:00:00 4.7 0 Calma -- -- 0 -- -- 100
2019-11-12 04:00:00 5.5 0 Calma -- -- 0 -- -- 100
2019-11-12 03:00:00 5.5 0 Calma -- -- 0 -- -- 100
2019-11-12 02:00:00 5.9 0 Calma 6 Nordeste 0 -- -- 100
2019-11-12 01:00:00 5.8 0 Calma 5 Sur 0.2 -- -- 100
2019-11-12 00:00:00 5.6 0 Calma -- -- 0 -- -- 100
2019-11-11 23:00:00 5.5 0 Calma -- -- 0 -- -- 100
2019-11-11 22:00:00 6.2 0 Calma -- -- 0 -- -- 100
2019-11-11 21:00:00 6.5 0 Calma 18 Oeste 0.8 -- -- 100
2019-11-11 20:00:00 6.9 0 Calma 7 Oeste 1.6 -- -- 100
2019-11-11 19:00:00 7.3 4 Sudoeste 22 Sudoeste 0.4 -- -- 99
2019-11-11 18:00:00 7.5 6 Oeste 22 Noroeste 2.6 -- -- 99
2019-11-11 17:00:00 7.9 6 Oeste 27 Oeste 0.4 -- -- 96
2019-11-11 16:00:00 8.1 11 Oeste 36 Oeste 1.4 -- -- 94
2019-11-11 15:00:00 8.4 10 Oeste 35 Oeste 1.4 -- -- 96
2019-11-11 14:00:00 8.7 10 Oeste 36 Oeste 0.8 -- -- 94
2019-11-11 13:00:00 8.9 22 Oeste 52 Oeste 1.8 -- -- 90
2019-11-11 12:00:00 9.6 17 Oeste 45 Oeste 0.8 -- -- 95
2019-11-11 11:00:00 10.3 14 Oeste 35 Oeste 2.4 -- -- 100
2019-11-11 10:00:00 8 5 Oeste 15 Oeste 1 -- -- 100
2019-11-11 09:00:00 6.7 0 Calma 4 Norte 0.4 -- -- 100
2019-11-11 08:00:00 6.3 0 Calma 3 Noroeste 0 -- -- 100
2019-11-11 07:00:00 6 0 Calma 6 Oeste 0 -- -- 100
2019-11-11 06:00:00 5.8 0 Calma 5 Sur 0.6 -- -- 100
2019-11-11 05:00:00 5.3 0 Calma 4 Oeste 0 -- -- 100
2019-11-11 04:00:00 4.9 0 Calma 4 Sur 0 -- -- 100
2019-11-11 03:00:00 4.5 0 Calma 4 Sur 0 -- -- 100
2019-11-11 02:00:00 4.4 2 Oeste 6 Sur 0 -- -- 100
2019-11-11 01:00:00 3.9 0 Calma 5 Este 0 -- -- 100
2019-11-11 00:00:00 4.3 3 Sudeste 5 Sur 0 -- -- 100
2019-11-10 23:00:00 5.4 0 Calma 3 Sudeste 0 -- -- 100
2019-11-10 22:00:00 5.9 0 Calma 4 Sudoeste 1.8 -- -- 100
2019-11-10 21:00:00 6 0 Calma 9 Oeste 0.4 -- -- 100
2019-11-10 20:00:00 6.2 5 Sudoeste 14 Sudoeste 1.8 -- -- 100
2019-11-10 19:00:00 6.4 9 Oeste 22 Sudoeste 1.2 -- -- 98
2019-11-10 18:00:00 6.8 5 Oeste 15 Oeste 0.2 -- -- 96
2019-11-10 17:00:00 6.9 4 Oeste 21 Oeste 0.2 -- -- 96
2019-11-10 16:00:00 5.1 4 Sudoeste 19 Sudoeste 4.6 -- -- 100
2019-11-10 15:00:00 5.1 4 Sudoeste 21 Oeste 7.8 -- -- 99
2019-11-10 14:00:00 6.3 12 Sudoeste 54 Oeste 1.6 -- -- 94
2019-11-10 13:00:00 5.9 4 Este 32 Oeste 3.6 -- -- 100
2019-11-10 12:00:00 5.8 10 Oeste 39 Oeste 6.6 -- -- 94
2019-11-10 11:00:00 6 7 Sudoeste 24 Oeste 3.8 -- -- 97
2019-11-10 10:00:00 5.6 6 Oeste 21 Noroeste 4 -- -- 99
2019-11-10 09:00:00 4.8 10 Sudoeste 24 Sur 4.4 -- -- 96
2019-11-10 08:00:00 5.9 9 Oeste 27 Noroeste 0.6 -- -- 94
2019-11-10 07:00:00 6 7 Oeste 31 Oeste 0.4 -- -- 93
2019-11-10 06:00:00 5 2 Sudeste 13 Oeste 0.4 -- -- 100
2019-11-10 05:00:00 4.6 2 Este 6 Noroeste 0 -- -- 100
2019-11-10 04:00:00 4.7 2 Este 17 Oeste 0.2 -- -- 100
2019-11-10 03:00:00 5.4 10 Oeste 33 Noroeste 0.2 -- -- 91
2019-11-10 02:00:00 5.3 4 Sudoeste 17 Oeste 0.8 -- -- 96
2019-11-10 01:00:00 5.4 2 Sudoeste 6 Noroeste 0.8 -- -- 100
2019-11-10 00:00:00 5.6 0 Calma 17 Oeste 1.4 -- -- 98
2019-11-09 23:00:00 5.5 5 Oeste 14 Oeste 3.4 -- -- 100
2019-11-09 22:00:00 5.4 0 Calma 8 Sudoeste 6.2 -- -- 98
2019-11-09 21:00:00 6.5 8 Oeste 28 Oeste 10 -- -- 94
2019-11-09 20:00:00 8 13 Oeste 37 Noroeste 2 -- -- 90
2019-11-09 19:00:00 9.7 21 Oeste 49 Noroeste 0 -- -- 80
2019-11-09 18:00:00 10.5 2 Sudeste 22 Oeste 0 -- -- 87
2019-11-09 17:00:00 11.6 6 Oeste 23 Noroeste 0 -- -- 76
2019-11-09 16:00:00 12.2 11 Noroeste 37 Oeste 0 -- -- 79
2019-11-09 15:00:00 13.5 14 Oeste 35 Oeste 0 -- -- 80
2019-11-09 14:00:00 13.4 9 Oeste 20 Noroeste 0 -- -- 78
2019-11-09 13:00:00 12.5 2 Sur 6 Sur 0 -- -- 90
2019-11-09 12:00:00 9.5 3 Sur 8 Sudeste 0.8 -- -- 97
2019-11-09 11:00:00 7.5 0 Calma 6 Noroeste 1.4 -- -- 100
2019-11-09 10:00:00 7 2 Noroeste 6 Sudoeste 0.6 -- -- 100
2019-11-09 09:00:00 6.1 2 Sudeste 5 Noroeste 0.2 -- -- 100
2019-11-09 08:00:00 5.9 2 Sur 8 Sur 0 -- -- 100
2019-11-09 07:00:00 5.9 0 Calma 5 Sur 0 -- -- 100
2019-11-09 06:00:00 6.1 0 Calma 5 Este 0 -- -- 100
2019-11-09 05:00:00 6 0 Calma 4 Este 0 -- -- 100
2019-11-09 04:00:00 5.9 0 Calma 3 Este 0 -- -- 100
2019-11-09 03:00:00 6.2 2 Sudeste 6 Sur 0 -- -- 100
2019-11-09 02:00:00 6.4 0 Calma 4 Este 0 -- -- 100
2019-11-09 01:00:00 6.5 0 Calma 8 Oeste 0 -- -- 100
2019-11-09 00:00:00 6.4 2 Oeste 9 Sudoeste 0 -- -- 100
2019-11-08 23:00:00 6.6 5 Oeste 23 Oeste 0 -- -- 96
2019-11-08 22:00:00 7.2 12 Oeste 26 Sudoeste 0 -- -- 89
2019-11-08 21:00:00 7.5 8 Oeste 23 Oeste 0 -- -- 84
2019-11-08 20:00:00 7.7 11 Oeste 29 Oeste 0 -- -- 83
2019-11-08 19:00:00 7.2 9 Oeste 28 Noroeste 0 -- -- 80
2019-11-08 18:00:00 7.9 11 Oeste 29 Noroeste 0 -- -- 78
2019-11-08 17:00:00 7.8 12 Oeste 29 Oeste 0.4 -- -- 78
2019-11-08 16:00:00 8.6 12 Oeste 35 Oeste 0 -- -- 83
2019-11-08 15:00:00 9.7 18 Oeste 40 Noroeste 0 -- -- 69
2019-11-08 14:00:00 9 15 Oeste 32 Noroeste 0.2 -- -- 77
2019-11-08 13:00:00 7.9 13 Oeste 37 Oeste 0.4 -- -- 84
2019-11-08 12:00:00 6.9 9 Noroeste 25 Noroeste 0.8 -- -- 91
2019-11-08 11:00:00 6.7 15 Oeste 40 Noroeste 0.8 -- -- 90
2019-11-08 10:00:00 6.8 7 Noroeste 22 Noroeste 0.4 -- -- 89
2019-11-08 09:00:00 5.5 3 Oeste 20 Oeste 0.4 -- -- 99
2019-11-08 08:00:00 5.2 3 Sur 20 Noroeste 0.4 -- -- 100
2019-11-08 07:00:00 4.9 4 Nordeste 21 Oeste 0.4 -- -- 100
2019-11-08 06:00:00 4.4 0 Calma 6 Este 0.4 -- -- 100
2019-11-08 05:00:00 4.2 0 Calma 9 Este 0.8 -- -- 100
2019-11-08 04:00:00 4.1 3 Sur 6 Este 1.2 -- -- 100
2019-11-08 03:00:00 3.9 0 Calma 4 Este 2.2 -- -- 100
2019-11-08 02:00:00 3.9 0 Calma 6 Oeste 2.2 -- -- 100
2019-11-08 01:00:00 3.8 0 Calma 6 Este 0.2 -- -- 100
2019-11-08 00:00:00 3.6 0 Calma 5 Noroeste 0 -- -- 100
2019-11-07 23:00:00 3.4 5 Este 11 Sudoeste 0.2 -- -- 100
2019-11-07 22:00:00 3.2 3 Sudeste 6 Sur 0 -- -- 100
2019-11-07 21:00:00 3.5 0 Calma 5 Sur 0 -- -- 99
2019-11-07 20:00:00 4.1 0 Calma 5 Sur 0 -- -- 96
2019-11-07 19:00:00 5.4 0 Calma 11 Sudeste 0 -- -- 93
2019-11-07 18:00:00 6.4 0 Calma 9 Sudoeste 0 -- -- 97
2019-11-07 17:00:00 7.2 0 Calma 6 Sur 0 -- -- 95
2019-11-07 16:00:00 8.2 0 Calma 9 Nordeste 0 -- -- 92
2019-11-07 15:00:00 7.2 5 Este 29 Oeste 0.4 -- -- 90
2019-11-07 14:00:00 10.2 5 Sudoeste 25 Oeste 0 -- -- 67
2019-11-07 13:00:00 10.3 0 Calma 10 Oeste 0 -- -- 65
2019-11-07 12:00:00 10.6 3 Oeste 10 Norte 0 -- -- 68
2019-11-07 11:00:00 8.6 0 Calma 5 Sudeste 0 -- -- 86
2019-11-07 10:00:00 7 0 Calma 10 Sudoeste 0 -- -- 92
2019-11-07 09:00:00 7.1 7 Oeste 37 Oeste 0.2 -- -- 88
2019-11-07 08:00:00 6.9 5 Oeste 19 Sudoeste 0 -- -- 93
2019-11-07 07:00:00 7 0 Calma 6 Sudoeste 0 -- -- 99
2019-11-07 06:00:00 7.9 6 Oeste 23 Oeste 0 -- -- 93
2019-11-07 05:00:00 8.3 7 Oeste 24 Noroeste 0 -- -- 92
2019-11-07 04:00:00 8.6 0 Calma 21 Sudoeste 0 -- -- 98
2019-11-07 03:00:00 9.2 8 Oeste 30 Oeste 0.2 -- -- 93
2019-11-07 02:00:00 9.7 15 Oeste 37 Oeste 0.2 -- -- 93
2019-11-07 01:00:00 9.5 4 Noroeste 9 Nordeste 2.6 -- -- 100
2019-11-07 00:00:00 9.5 0 Calma 4 Nordeste 3.2 -- -- 100
2019-11-06 23:00:00 9.5 2 Este 5 Sur 0.4 -- -- 100
2019-11-06 22:00:00 9.6 0 Calma 6 Sur 0.2 -- -- 100
2019-11-06 21:00:00 9.7 0 Calma 6 Sudeste 0.8 -- -- 100
2019-11-06 20:00:00 9.9 0 Calma 4 Sudoeste 0 -- -- 99
2019-11-06 19:00:00 10.5 0 Calma 4 Oeste 0 -- -- 96
2019-11-06 18:00:00 11.6 0 Calma 7 Noroeste 0 -- -- 92
2019-11-06 17:00:00 12.9 0 Calma 8 Noroeste 0 -- -- 84
2019-11-06 16:00:00 13.8 0 Calma 10 Oeste 0 -- -- 75
2019-11-06 15:00:00 14.1 0 Calma 9 Sudeste 0 -- -- 81
2019-11-06 14:00:00 13.4 4 Este 13 Este 0 -- -- 79
2019-11-06 13:00:00 11.9 4 Este 8 Este 0 -- -- 82
2019-11-06 12:00:00 10.5 3 Sur 6 Sur 0 -- -- 90
2019-11-06 11:00:00 8.6 0 Calma 4 Sur 0 -- -- 100
2019-11-06 10:00:00 8 2 Noroeste 6 Sur 0 -- -- 100
2019-11-06 09:00:00 7.4 0 Calma 4 Sudeste 0.4 -- -- 100
2019-11-06 08:00:00 7.1 0 Calma 5 Sur 0 -- -- 100
2019-11-06 07:00:00 7.3 2 Sudeste 5 Nordeste 0 -- -- 100
2019-11-06 06:00:00 7.9 0 Calma 5 Este 0.2 -- -- 100
2019-11-06 05:00:00 8.1 2 Este 10 Sur 0.4 -- -- 100
2019-11-06 04:00:00 8.3 0 Calma 14 Sudoeste 0 -- -- 98
2019-11-06 03:00:00 8.7 8 Oeste 26 Oeste 0.2 -- -- 94
2019-11-06 02:00:00 9.3 12 Oeste 29 Noroeste 0 -- -- 88
2019-11-06 01:00:00 9 10 Oeste 34 Oeste 0 -- -- 90
2019-11-06 00:00:00 9.2 11 Oeste 29 Oeste 0.2 -- -- 90
2019-11-05 23:00:00 9.1 8 Oeste 23 Oeste 0.8 -- -- 95
2019-11-05 22:00:00 9.1 9 Oeste 24 Oeste 1.6 -- -- 98
2019-11-05 21:00:00 8.8 7 Oeste 18 Sudoeste 1.8 -- -- 98
2019-11-05 20:00:00 9 7 Oeste 26 Oeste 0.6 -- -- 95
2019-11-05 19:00:00 9 10 Oeste 28 Oeste 1.8 -- -- 95
2019-11-05 18:00:00 8.7 7 Oeste 31 Noroeste 1 -- -- 96
2019-11-05 17:00:00 9 4 Oeste 33 Noroeste 2.6 -- -- 96
2019-11-05 16:00:00 9.2 6 Oeste 19 Oeste 1.4 -- -- 97
2019-11-05 15:00:00 9.5 3 Sudoeste 23 Oeste 0.2 -- -- 91
2019-11-05 14:00:00 9.7 6 Oeste 25 Oeste 0.6 -- -- 92
2019-11-05 13:00:00 8.5 3 Sudeste 31 Oeste 2.4 -- -- 100
2019-11-05 12:00:00 8.4 2 Sudoeste 8 Sudeste 1.2 -- -- 100
2019-11-05 11:00:00 7.1 2 Nordeste 10 Sur 1.2 -- -- 100
2019-11-05 10:00:00 6.1 0 Calma 9 Sur 1 -- -- 100
2019-11-05 09:00:00 5.4 5 Este 9 Este 1.2 -- -- 100
2019-11-05 08:00:00 4.6 2 Noroeste 6 Sur 0.2 -- -- 100
2019-11-05 07:00:00 3.7 0 Calma 6 Sur 0 -- -- 100
2019-11-05 06:00:00 4.3 4 Sudoeste 8 Sur 0 -- -- 100
2019-11-05 05:00:00 4 0 Calma 4 Este 0 -- -- 100
2019-11-05 04:00:00 4.1 3 Este 5 Este 0 -- -- 100
2019-11-05 03:00:00 4.1 0 Calma 4 Sudeste 0 -- -- 100
2019-11-05 02:00:00 3.8 0 Calma 4 Sur 0 -- -- 100
2019-11-05 01:00:00 3.8 0 Calma 5 Este 0 -- -- 100
2019-11-05 00:00:00 4.6 3 Sur 9 Sur 0 -- -- 100
2019-11-04 23:00:00 5 0 Calma 5 Sudoeste 0 -- -- 100
2019-11-04 22:00:00 5.7 0 Calma 2 Sudoeste 0 -- -- 100
2019-11-04 21:00:00 7.2 0 Calma 6 Sudeste 0 -- -- 100
2019-11-04 20:00:00 8.7 0 Calma 4 Sur 0 -- -- 100
2019-11-04 19:00:00 9.4 2 Sur 5 Este 0 -- -- 100
2019-11-04 18:00:00 9.9 0 Calma 13 Sudoeste 1.6 -- -- 100
2019-11-04 17:00:00 10.5 3 Sudoeste 7 Sudoeste 1.2 -- -- 98
2019-11-04 16:00:00 10.7 3 Sudoeste 7 Sur 0.2 -- -- 100
2019-11-04 15:00:00 10.9 3 Sudoeste 12 Este 0.8 -- -- 97
2019-11-04 14:00:00 12.1 6 Oeste 13 Oeste 0 -- -- 92
2019-11-04 13:00:00 12.3 2 Sudoeste 19 Oeste 0 -- -- 93
2019-11-04 12:00:00 12.2 9 Oeste 28 Oeste 1.4 -- -- 92
2019-11-04 11:00:00 12.9 4 Noroeste 16 Noroeste 0 -- -- 100
2019-11-04 10:00:00 11.9 0 Calma 8 Sur 0.4 -- -- 100
2019-11-04 09:00:00 10.4 2 Nordeste 14 Noroeste 0 -- -- 100
2019-11-04 08:00:00 8.5 3 Noroeste 10 Noroeste 0 -- -- 100
2019-11-04 07:00:00 7.3 2 Noroeste 8 Sudoeste 0 -- -- 100
2019-11-04 06:00:00 6.7 2 Este 9 Este 0 -- -- 100
2019-11-04 05:00:00 6.9 2 Norte 6 Noroeste 0 -- -- 100
2019-11-04 04:00:00 7.6 2 Oeste 13 Este 0 -- -- 100
2019-11-04 03:00:00 7.7 0 Calma 6 Sudeste 0 -- -- 100
2019-11-04 02:00:00 8.6 2 Sudeste 6 Sudeste 0 -- -- 100
2019-11-04 01:00:00 8.7 3 Sudeste 8 Sur 0 -- -- 100
2019-11-04 00:00:00 9.2 0 Calma 7 Sur 0 -- -- 100
2019-11-03 23:00:00 10.3 3 Este 6 Sudeste 0 -- -- 100
2019-11-03 22:00:00 10.7 0 Calma 5 Noroeste 0 -- -- 99
2019-11-03 21:00:00 10.8 0 Calma 5 Sudeste 0 -- -- 99
2019-11-03 20:00:00 10.9 0 Calma 6 Sudeste 0.4 -- -- 97
2019-11-03 19:00:00 11.4 3 Sudeste 9 Sudeste 0 -- -- 92
2019-11-03 18:00:00 12.4 5 Sur 8 Sur 0 -- -- 85
2019-11-03 17:00:00 13.9 0 Calma 9 Oeste 0 -- -- 80
2019-11-03 16:00:00 15.6 5 Oeste 16 Oeste 0 -- -- 64
2019-11-03 15:00:00 17 12 Oeste 26 Sudoeste 0 -- -- 51
2019-11-03 14:00:00 16.2 3 Sur 27 Noroeste 0 -- -- 51
2019-11-03 13:00:00 15.4 9 Oeste 24 Noroeste 0 -- -- 49
2019-11-03 12:00:00 14.1 9 Oeste 32 Norte 0 -- -- 55
2019-11-03 11:00:00 12.8 9 Oeste 30 Noroeste 0 -- -- 60
2019-11-03 10:00:00 10.7 8 Oeste 39 Oeste 0 -- -- 70
2019-11-03 09:00:00 9.4 9 Oeste 26 Oeste 0 -- -- 75
2019-11-03 08:00:00 8.4 6 Oeste 59 Oeste 0.2 -- -- 82
2019-11-03 07:00:00 8.8 16 Oeste 49 Sudoeste 0.6 -- -- 76
2019-11-03 06:00:00 9.5 14 Oeste 47 Oeste 0 -- -- 84
2019-11-03 05:00:00 10.7 16 Oeste 38 Noroeste 0.2 -- -- 81
2019-11-03 04:00:00 11.3 15 Oeste 35 Oeste 0 -- -- 86
2019-11-03 03:00:00 15.5 10 Oeste 26 Noroeste 0 -- -- 66
2019-11-03 02:00:00 12.6 3 Sudeste 32 Noroeste 0 -- -- 80
2019-11-03 01:00:00 11.4 3 Este 12 Nordeste 0 -- -- 90
2019-11-03 00:00:00 12.8 7 Noroeste 28 Norte 0 -- -- 75
2019-11-02 23:00:00 12.2 6 Noroeste 21 Noroeste 0 -- -- 78
2019-11-02 22:00:00 11.9 5 Este 15 Sudoeste 0 -- -- 90
2019-11-02 21:00:00 12.7 2 Oeste 22 Noroeste 0 -- -- 86
2019-11-02 20:00:00 13.9 6 Oeste 16 Noroeste 0 -- -- 69
2019-11-02 19:00:00 12.4 3 Este 12 Este 0 -- -- 87
2019-11-02 18:00:00 13.1 3 Sudoeste 13 Noroeste 0 -- -- 99
2019-11-02 17:00:00 14 2 Noroeste 6 Oeste 0 -- -- 97
2019-11-02 16:00:00 14.4 0 Calma 5 Noroeste 0 -- -- 93
2019-11-02 15:00:00 14.5 0 Calma 11 Sudeste 0 -- -- 93
2019-11-02 14:00:00 14.5 4 Sudoeste 22 Oeste 0 -- -- 92
2019-11-02 13:00:00 15.1 0 Calma 4 Oeste 0 -- -- 94
2019-11-02 12:00:00 14.1 0 Calma 5 Noroeste 0 -- -- 100
2019-11-02 11:00:00 13.7 0 Calma 14 Noroeste 0 -- -- 100
2019-11-02 10:00:00 13.7 0 Calma 13 Noroeste 0 -- -- 100
2019-11-02 09:00:00 12.8 0 Calma -- -- 0 -- -- 100
2019-11-02 08:00:00 12.2 0 Calma 3 Sur 0 -- -- 100
2019-11-02 07:00:00 11.9 0 Calma 8 Sur 0.2 -- -- 100
2019-11-02 06:00:00 11.3 0 Calma 5 Este 0 -- -- 100
2019-11-02 05:00:00 11 0 Calma 5 Este 0 -- -- 100
2019-11-02 04:00:00 11.6 0 Calma 8 Sudeste 0 -- -- 100
2019-11-02 03:00:00 11.4 3 Este 6 Este 0 -- -- 100
2019-11-02 02:00:00 11.6 0 Calma 5 Sudeste 0 -- -- 100
2019-11-02 01:00:00 11.8 0 Calma 5 Nordeste 0 -- -- 100
2019-11-02 00:00:00 12 0 Calma 6 Sur 0 -- -- 100
2019-11-01 23:00:00 12 3 Oeste 8 Noroeste 0 -- -- 100
2019-11-01 22:00:00 12.3 0 Calma 9 Sur 0 -- -- 100
2019-11-01 21:00:00 12.7 4 Sudeste 11 Sudeste 0 -- -- 100
2019-11-01 20:00:00 13.2 3 Sur 5 Sur 0 -- -- 100
2019-11-01 19:00:00 14.5 0 Calma 4 Sudeste 0 -- -- 100
2019-11-01 18:00:00 16.1 0 Calma 7 Este 0.4 -- -- 100
2019-11-01 17:00:00 16.9 0 Calma 4 Sudoeste 0 -- -- 100
2019-11-01 16:00:00 17.5 0 Calma 4 Sur 0.2 -- -- 100
2019-11-01 15:00:00 17.2 0 Calma 8 Noroeste 2.4 -- -- 98
2019-11-01 14:00:00 18.4 2 Oeste 4 Noroeste 0 -- -- 89
2019-11-01 13:00:00 17.9 0 Calma 5 Oeste 0 -- -- 95
2019-11-01 12:00:00 16.7 0 Calma -- -- 0.2 -- -- 100
2019-11-01 11:00:00 15.3 0 Calma -- -- 0 -- -- 100
2019-11-01 10:00:00 13.8 0 Calma 2 Este 0 -- -- 100
2019-11-01 09:00:00 12.3 0 Calma 3 Este 0 -- -- 100
2019-11-01 08:00:00 12.6 2 Sudoeste 8 Sur 0 -- -- 100
2019-11-01 07:00:00 12 3 Sudeste 9 Este 0 -- -- 100
2019-11-01 06:00:00 11.4 0 Calma 4 Este 0 -- -- 100
2019-11-01 05:00:00 12.2 2 Este 8 Este 0 -- -- 100
2019-11-01 04:00:00 12.8 0 Calma 4 Sur 0 -- -- 100
2019-11-01 03:00:00 12.7 0 Calma 9 Sur 0 -- -- 100
2019-11-01 02:00:00 12.6 4 Sudeste 9 Este 0 -- -- 100
2019-11-01 01:00:00 12.1 0 Calma 3 Este 0 -- -- 100
2019-11-01 00:00:00 13 0 Calma 3 Sudoeste 0 -- -- 100
2019-10-31 23:00:00 13.9 0 Calma 5 Sudoeste 0 -- -- 100
2019-10-31 22:00:00 14.4 0 Calma 3 Este 0 -- -- 100
2019-10-31 21:00:00 14.6 0 Calma -- -- 0 -- -- 100
2019-10-31 20:00:00 15 0 Calma -- -- 0 -- -- 98
2019-10-31 19:00:00 15.6 0 Calma 2 Noroeste 0 -- -- 96
2019-10-31 18:00:00 16.6 0 Calma 7 Norte 0 -- -- 93
2019-10-31 17:00:00 17.6 0 Calma 10 Noroeste 0 -- -- 89
2019-10-31 16:00:00 18.3 2 Oeste 6 Oeste 0 -- -- 86
2019-10-31 15:00:00 18.4 0 Calma 6 Oeste 0 -- -- 86
2019-10-31 14:00:00 20.1 3 Sudoeste 11 Norte 0 -- -- 72
2019-10-31 13:00:00 19 4 Oeste 8 Noroeste 0 -- -- 81
2019-10-31 12:00:00 17.4 3 Sudoeste 8 Sudoeste 0 -- -- 89
2019-10-31 11:00:00 15.3 0 Calma 4 Oeste 0 -- -- 100
2019-10-31 10:00:00 12.8 0 Calma 4 Norte 0 -- -- 100
2019-10-31 09:00:00 11.6 0 Calma 5 Sur 0 -- -- 100
2019-10-31 08:00:00 11.3 3 Sur 5 Sur 0 -- -- 100
2019-10-31 07:00:00 10.8 0 Calma -- -- 0 -- -- 100
2019-10-31 06:00:00 11.2 0 Calma -- -- 0 -- -- 100
2019-10-31 05:00:00 11.6 0 Calma -- -- 0 -- -- 100
2019-10-31 04:00:00 11.5 0 Calma -- -- 0 -- -- 100
2019-10-31 03:00:00 11.6 0 Calma 2 Nordeste 0 -- -- 100
2019-10-31 02:00:00 11.8 0 Calma 4 Este 0 -- -- 100
2019-10-31 01:00:00 12.2 0 Calma 4 Sudeste 0 -- -- 100
2019-10-31 00:00:00 13.2 0 Calma 4 Norte 0.2 -- -- 100
2019-10-30 23:00:00 13.4 2 Sur 6 Sudeste 1 -- -- 100
2019-10-30 22:00:00 13.1 0 Calma 5 Este 0 -- -- 100
2019-10-30 21:00:00 13.2 0 Calma 3 Sur 0 -- -- 100
2019-10-30 20:00:00 13.6 0 Calma 5 Sudoeste 0 -- -- 99
2019-10-30 19:00:00 14.5 0 Calma 4 Sur 0 -- -- 97
2019-10-30 18:00:00 15.6 0 Calma 7 Oeste 0 -- -- 97
2019-10-30 17:00:00 16.6 0 Calma -- -- 0 -- -- 95
2019-10-30 16:00:00 18.1 0 Calma -- -- 0 -- -- 88
2019-10-30 15:00:00 18.8 0 Calma 20 Este 0 -- -- 88
2019-10-30 14:00:00 17.7 7 Este 17 Este 0 -- -- 86
2019-10-30 13:00:00 16.9 0 Calma 4 Sur 0 -- -- 95
2019-10-30 12:00:00 16.1 0 Calma 0 Calma 0 -- -- 98
2019-10-30 11:00:00 13.8 0 Calma 4 Este 0 -- -- 100
2019-10-30 10:00:00 10.8 0 Calma 3 Nordeste 0 -- -- 100
2019-10-30 09:00:00 8.3 0 Calma 4 Este 0 -- -- 100
2019-10-30 08:00:00 7.3 2 Este 4 Este 0 -- -- 100
2019-10-30 07:00:00 7.2 0 Calma 3 Nordeste 0 -- -- 100
2019-10-30 06:00:00 7.4 0 Calma 3 Este 0 -- -- 100
2019-10-30 05:00:00 7.1 0 Calma 3 Este 0 -- -- 100
2019-10-30 04:00:00 7.3 0 Calma 2 Este 0 -- -- 100
2019-10-30 03:00:00 8 0 Calma 3 Sudeste 0 -- -- 100
2019-10-30 02:00:00 8.1 0 Calma 2 Nordeste 0 -- -- 100
2019-10-30 01:00:00 8.3 0 Calma 2 Norte 0 -- -- 100
2019-10-30 00:00:00 8.7 0 Calma 4 Nordeste 0 -- -- 100
2019-10-29 23:00:00 8.9 0 Calma 3 Este 0 -- -- 100
2019-10-29 22:00:00 10.1 0 Calma 4 Este 0 -- -- 99
2019-10-29 21:00:00 11.3 0 Calma 3 Sur 0 -- -- 99
2019-10-29 20:00:00 11.9 0 Calma 2 Sudeste 0 -- -- 96
2019-10-29 19:00:00 13.5 0 Calma 2 Este 0 -- -- 94
2019-10-29 18:00:00 15.4 0 Calma 6 Norte 0 -- -- 89
2019-10-29 17:00:00 17.4 4 Oeste 10 Oeste 0 -- -- 82
2019-10-29 16:00:00 18.6 3 Oeste 9 Oeste 0 -- -- 80
2019-10-29 15:00:00 18.7 3 Oeste 17 Oeste 0 -- -- 74
2019-10-29 14:00:00 18.3 6 Oeste 15 Oeste 0 -- -- 81
2019-10-29 13:00:00 16.9 0 Calma 12 Noroeste 0 -- -- 87
2019-10-29 12:00:00 17.9 5 Noroeste 14 Noroeste 0 -- -- 81
2019-10-29 11:00:00 14.8 3 Oeste 11 Norte 0 -- -- 100
2019-10-29 10:00:00 12.4 0 Calma 5 Este 0 -- -- 100
2019-10-29 09:00:00 10.2 0 Calma 6 Nordeste 0 -- -- 100
2019-10-29 08:00:00 8.7 0 Calma 5 Este 0 -- -- 100
2019-10-29 07:00:00 8.5 0 Calma 5 Este 0 -- -- 100
2019-10-29 06:00:00 8 0 Calma 5 Este 0 -- -- 100
2019-10-29 05:00:00 8 0 Calma 5 Este 0 -- -- 100
2019-10-29 04:00:00 8.3 2 Este 4 Este 0 -- -- 100
2019-10-29 03:00:00 8.3 0 Calma -- -- 0 -- -- 100
2019-10-29 02:00:00 8.7 0 Calma -- -- 0 -- -- 100
2019-10-29 01:00:00 9.3 0 Calma -- -- 0 -- -- 100
2019-10-29 00:00:00 9.7 0 Calma -- -- 0 -- -- 100
2019-10-28 23:00:00 10.2 0 Calma -- -- 0 -- -- 100
2019-10-28 22:00:00 10.9 0 Calma -- -- 0 -- -- 100
2019-10-28 21:00:00 11.6 0 Calma -- -- 0 -- -- 99
2019-10-28 20:00:00 12.2 0 Calma -- -- 0 -- -- 97
2019-10-28 19:00:00 13.6 0 Calma -- -- 0 -- -- 93
2019-10-28 18:00:00 15.6 0 Calma -- -- 0 -- -- 89
2019-10-28 17:00:00 17.6 0 Calma 3 Sudeste 0 -- -- 87
2019-10-28 16:00:00 18.7 0 Calma 5 Sudoeste 0 -- -- 86
2019-10-28 15:00:00 19.9 2 Sudoeste 4 Este 0 -- -- 75
2019-10-28 14:00:00 19.4 2 Sur 11 Noroeste 0 -- -- 79
2019-10-28 13:00:00 20.6 2 Oeste 12 Noroeste 0 -- -- 67
2019-10-28 12:00:00 18.5 0 Calma -- -- 0 -- -- 85
2019-10-28 11:00:00 15 0 Calma -- -- 0 -- -- 98
2019-10-28 10:00:00 11.3 0 Calma 6 Este 0 -- -- 100
2019-10-28 09:00:00 10.4 2 Sudeste 5 Este 0 -- -- 100
2019-10-28 08:00:00 9.6 0 Calma 4 Este 0 -- -- 100
2019-10-28 07:00:00 9.9 0 Calma 6 Sur 0 -- -- 100
2019-10-28 06:00:00 9.9 0 Calma 5 Este 0 -- -- 100
2019-10-28 05:00:00 9.6 2 Sudoeste 6 Este 0 -- -- 100
2019-10-28 04:00:00 9.3 0 Calma 4 Este 0 -- -- 100
2019-10-28 03:00:00 9.7 0 Calma 4 Sudeste 0 -- -- 100
2019-10-28 02:00:00 10.2 0 Calma 8 Este 0 -- -- 100
2019-10-28 01:00:00 10.7 0 Calma 5 Nordeste 0 -- -- 100
2019-10-28 00:00:00 11 0 Calma 8 Sur 0 -- -- 100
2019-10-27 23:00:00 11.2 0 Calma 6 Sur 0 -- -- 100
2019-10-27 22:00:00 11.7 2 Este 6 Sur 0 -- -- 100
2019-10-27 21:00:00 12 0 Calma -- -- 0 -- -- 99
2019-10-27 20:00:00 12.8 0 Calma -- -- 0 -- -- 97
2019-10-27 19:00:00 14 0 Calma -- -- 0 -- -- 94
2019-10-27 18:00:00 16 0 Calma -- -- 0 -- -- 89
2019-10-27 17:00:00 18.3 0 Calma -- -- 0 -- -- 86
2019-10-27 16:00:00 19.2 0 Calma -- -- 0 -- -- 81
2019-10-27 15:00:00 19.7 0 Calma -- -- 0 -- -- 86
2019-10-27 14:00:00 19.6 0 Calma -- -- 0 -- -- 84
2019-10-27 13:00:00 19.7 0 Calma -- -- 0 -- -- 83
2019-10-27 12:00:00 18.1 0 Calma -- -- 0 -- -- 86
2019-10-27 11:00:00 14.3 0 Calma -- -- 0 -- -- 100
2019-10-27 10:00:00 10.7 0 Calma -- -- 0 -- -- 100
2019-10-27 09:00:00 8.3 0 Calma -- -- 0 -- -- 100
2019-10-27 08:00:00 7.2 0 Calma -- -- 0 -- -- 100
2019-10-27 07:00:00 6.9 0 Calma -- -- 0 -- -- 100
2019-10-27 06:00:00 6.7 0 Calma -- -- 0 -- -- 100
2019-10-27 05:00:00 6.9 0 Calma -- -- 0 -- -- 100
2019-10-27 04:00:00 6.8 0 Calma -- -- 0 -- -- 100
2019-10-27 03:00:00 6.4 0 Calma -- -- 0 -- -- 100
2019-10-27 02:00:00 5.9 0 Calma -- -- 0 -- -- 100
2019-10-27 01:00:00 6.3 0 Calma -- -- 0 -- -- 100
2019-10-27 00:00:00 6.7 0 Calma -- -- 0 -- -- 100
2019-10-26 23:00:00 7.5 0 Calma -- -- 0 -- -- 98
2019-10-26 22:00:00 8.5 0 Calma -- -- 0 -- -- 98
2019-10-26 21:00:00 10.1 0 Calma 4 Este 0 -- -- 95
2019-10-26 20:00:00 12 0 Calma 5 Sudeste 0 -- -- 90
2019-10-26 19:00:00 14.9 0 Calma 3 Sudeste 0 -- -- 88
2019-10-26 18:00:00 16.8 0 Calma 4 Sudeste 0 -- -- 87
2019-10-26 17:00:00 18.5 2 Sur 9 Sur 0 -- -- 78
2019-10-26 16:00:00 20 0 Calma -- -- 0 -- -- 76
2019-10-26 15:00:00 20.1 0 Calma -- -- 0 -- -- 77
2019-10-26 14:00:00 19.4 0 Calma -- -- 0 -- -- 79
2019-10-26 13:00:00 17 0 Calma 4 Sur 0 -- -- 87
2019-10-26 12:00:00 13.4 0 Calma 8 Este 0 -- -- 100
2019-10-26 11:00:00 8.9 0 Calma 7 Este 0 -- -- 100
2019-10-26 10:00:00 5.5 0 Calma 7 Este 0 -- -- 100
2019-10-26 09:00:00 4.4 2 Este 6 Este 0 -- -- 100
2019-10-26 08:00:00 4.7 0 Calma 8 Nordeste 0 -- -- 100
2019-10-26 07:00:00 4.7 0 Calma 9 Nordeste 0 -- -- 100
2019-10-26 06:00:00 4.1 0 Calma 5 Este 0 -- -- 100
2019-10-26 05:00:00 4.4 0 Calma 10 Este 0 -- -- 100
2019-10-26 04:00:00 4.1 2 Sudeste 7 Este 0 -- -- 100
2019-10-26 03:00:00 4.4 0 Calma 6 Este 0 -- -- 100
2019-10-26 02:00:00 4.7 0 Calma 5 Este 0 -- -- 100
2019-10-26 01:00:00 5.4 2 Este 5 Este 0 -- -- 100
2019-10-26 00:00:00 6 0 Calma 5 Este 0 -- -- 100
2019-10-25 23:00:00 6.9 0 Calma 4 Sur 0 -- -- 100
2019-10-25 22:00:00 8.1 0 Calma 4 Nordeste 0 -- -- 99
2019-10-25 21:00:00 9.2 0 Calma 4 Este 0 -- -- 97
2019-10-25 20:00:00 11 0 Calma 4 Este 0 -- -- 93
2019-10-25 19:00:00 13.7 0 Calma 4 Sur 0 -- -- 96
2019-10-25 18:00:00 16 2 Sudoeste 12 Oeste 0 -- -- 93
2019-10-25 17:00:00 18.9 5 Oeste 12 Oeste 0 -- -- 83
2019-10-25 16:00:00 19.8 4 Oeste 16 Este 0 -- -- 75
2019-10-25 15:00:00 19.8 5 Sudeste 15 Nordeste 0 -- -- 83
2019-10-25 14:00:00 18.5 2 Sur 5 Sur 0 -- -- 92
2019-10-25 13:00:00 16.3 3 Sur 6 Sudoeste 0 -- -- 100
2019-10-25 12:00:00 13.9 0 Calma 6 Sur 0 -- -- 100
2019-10-25 11:00:00 9.9 0 Calma 7 Sur 0 -- -- 100
2019-10-25 10:00:00 6.6 0 Calma 7 Sudoeste 0 -- -- 100
2019-10-25 09:00:00 5.8 2 Sudeste 5 Nordeste 0 -- -- 100
2019-10-25 08:00:00 5.4 0 Calma 6 Este 0 -- -- 100
2019-10-25 07:00:00 5.3 3 Sudeste 6 Este 0 -- -- 100
2019-10-25 06:00:00 5.2 0 Calma 5 Este 0 -- -- 100
2019-10-25 05:00:00 5.8 2 Sudeste 6 Este 0 -- -- 100
2019-10-25 04:00:00 6.2 0 Calma 5 Sur 0 -- -- 100
2019-10-25 03:00:00 6.7 4 Este 5 Este 0 -- -- 100
2019-10-25 02:00:00 7.2 0 Calma 5 Este 0 -- -- 100
2019-10-25 01:00:00 8.1 0 Calma 5 Este 0 -- -- 100
2019-10-25 00:00:00 8.9 0 Calma 3 Sur 0 -- -- 100
2019-10-24 23:00:00 10 0 Calma 3 Nordeste 0 -- -- 100
2019-10-24 22:00:00 11.4 2 Sudeste 5 Este 0 -- -- 100
2019-10-24 21:00:00 12.2 2 Este 4 Sudeste 0 -- -- 100
2019-10-24 20:00:00 13 0 Calma 5 Noroeste 0 -- -- 99
2019-10-24 19:00:00 14 0 Calma 4 Oeste 0 -- -- 98
2019-10-24 18:00:00 14.8 2 Sudeste 6 Este 0 -- -- 96
2019-10-24 17:00:00 15.3 0 Calma 15 Sudeste 0 -- -- 95
2019-10-24 16:00:00 16.2 0 Calma 6 Este 0 -- -- 89
2019-10-24 15:00:00 14.8 0 Calma 8 Este 0 -- -- 97
2019-10-24 14:00:00 13.8 3 Este 8 Oeste 0 -- -- 100
2019-10-24 13:00:00 12.7 0 Calma 6 Sudoeste 0.2 -- -- 100
2019-10-24 12:00:00 10.7 3 Sur 7 Nordeste 0.6 -- -- 100
2019-10-24 11:00:00 9.4 0 Calma 5 Noroeste 0 -- -- 100
2019-10-24 10:00:00 8.3 0 Calma 4 Sur 0 -- -- 100
2019-10-24 09:00:00 7.8 3 Oeste 8 Sudeste 0.2 -- -- 100
2019-10-24 08:00:00 7.5 2 Sudeste 6 Sur 0.2 -- -- 100
2019-10-24 07:00:00 7.1 0 Calma 3 Oeste 0 -- -- 100
2019-10-24 06:00:00 7.2 2 Sudeste 6 Sur 0 -- -- 100
2019-10-24 05:00:00 7.5 0 Calma 8 Este 0.8 -- -- 100
2019-10-24 04:00:00 7.6 0 Calma 5 Sur 1.4 -- -- 100
2019-10-24 03:00:00 7.7 0 Calma 5 Este 1 -- -- 100
2019-10-24 02:00:00 7.9 0 Calma 4 Sudeste 1.6 -- -- 100
2019-10-24 01:00:00 8.1 3 Este 6 Este 1.8 -- -- 100
2019-10-24 00:00:00 8.3 3 Este 6 Sur 2 -- -- 100
2019-10-23 23:00:00 8.6 0 Calma 6 Sudoeste 2.2 -- -- 100
2019-10-23 22:00:00 8.9 0 Calma -- -- 1.6 -- -- 100
2019-10-23 21:00:00 9.2 0 Calma 12 Oeste 2.2 -- -- 100
2019-10-23 20:00:00 9.6 6 Sudoeste 13 Oeste 0.4 -- -- 100
2019-10-23 19:00:00 10 2 Oeste 12 Oeste 2.2 -- -- 99
2019-10-23 18:00:00 10.7 2 Sudoeste 16 Oeste 3.4 -- -- 98
2019-10-23 17:00:00 11.3 8 Oeste 22 Oeste 1 -- -- 95
2019-10-23 16:00:00 12.3 5 Oeste 14 Oeste 0.2 -- -- 97
2019-10-23 15:00:00 11.6 3 Noroeste 10 Sudoeste 0.8 -- -- 100
2019-10-23 14:00:00 11.4 4 Oeste 9 Oeste 2.6 -- -- 100
2019-10-23 13:00:00 10.9 2 Oeste 10 Noroeste 3.8 -- -- 100
2019-10-23 12:00:00 10.8 2 Nordeste 8 Oeste 10.6 -- -- 100
2019-10-23 11:00:00 10.8 3 Oeste 17 Oeste 8.4 -- -- 100
2019-10-23 10:00:00 10.9 4 Oeste 16 Oeste 7.2 -- -- 100
2019-10-23 09:00:00 10.8 6 Oeste 22 Oeste 5.8 -- -- 100
2019-10-23 08:00:00 10.6 6 Oeste 22 Oeste 7.8 -- -- 100
2019-10-23 07:00:00 10.5 10 Oeste 27 Sudoeste 4.6 -- -- 100
2019-10-23 06:00:00 10.3 8 Oeste 24 Oeste 4.4 -- -- 100
2019-10-23 05:00:00 10.1 6 Oeste 19 Oeste 4 -- -- 100
2019-10-23 04:00:00 9.7 5 Oeste 13 Oeste 2.4 -- -- 100
2019-10-23 03:00:00 9.4 4 Oeste 12 Noroeste 2.4 -- -- 100
2019-10-23 02:00:00 9.1 5 Oeste 16 Oeste 1 -- -- 100
2019-10-23 01:00:00 8.9 3 Oeste 12 Noroeste 0.8 -- -- 100
2019-10-23 00:00:00 8.9 3 Noroeste 9 Noroeste 2.2 -- -- 100
2019-10-22 23:00:00 8.9 0 Calma 13 Sudoeste 2.4 -- -- 100
2019-10-22 22:00:00 9.2 4 Sudoeste 12 Sudoeste 1.4 -- -- 98
2019-10-22 21:00:00 9.5 5 Sudoeste 24 Sudoeste 2.2 -- -- 97
2019-10-22 20:00:00 9.9 5 Sur 32 Oeste 4 -- -- 97
2019-10-22 19:00:00 9.9 5 Oeste 13 Sudoeste 1 -- -- 99
2019-10-22 18:00:00 10.4 2 Noroeste 8 Noroeste 0.2 -- -- 100
2019-10-22 17:00:00 10.1 4 Noroeste 9 Oeste 0 -- -- 100
2019-10-22 16:00:00 9.9 2 Sur 14 Oeste 0.2 -- -- 99
2019-10-22 15:00:00 9.1 5 Sudoeste 17 Sudoeste 0.2 -- -- 100
2019-10-22 14:00:00 8.3 0 Calma 3 Noroeste 0.2 -- -- 100
2019-10-22 13:00:00 7.5 0 Calma 5 Este 0 -- -- 100
2019-10-22 12:00:00 6.5 0 Calma 5 Sudeste 0 -- -- 100
2019-10-22 11:00:00 5.4 0 Calma 4 Este 0 -- -- 100
2019-10-22 10:00:00 2.9 0 Calma 4 Sudeste 0 -- -- 100
2019-10-22 09:00:00 2.3 0 Calma 4 Este 0 -- -- 100
2019-10-22 08:00:00 2.5 0 Calma 5 Este 0 -- -- 100
2019-10-22 07:00:00 3 2 Sudeste 4 Sur 0 -- -- 100
2019-10-22 06:00:00 3.7 0 Calma -- -- 0 -- -- 100
2019-10-22 05:00:00 3.9 0 Calma -- -- 0 -- -- 100
2019-10-22 04:00:00 3.5 0 Calma -- -- 0 -- -- 100
2019-10-22 03:00:00 4.3 0 Calma -- -- 0 -- -- 100
2019-10-22 02:00:00 5.2 0 Calma -- -- 0 -- -- 100
2019-10-22 01:00:00 6.1 0 Calma -- -- 0 -- -- 100
2019-10-22 00:00:00 6.8 0 Calma -- -- 0 -- -- 100
2019-10-21 23:00:00 7.5 0 Calma -- -- 0 -- -- 100
2019-10-21 22:00:00 7.7 0 Calma -- -- 0 -- -- 100
2019-10-21 21:00:00 8.2 0 Calma -- -- 0 -- -- 100
2019-10-21 20:00:00 8.4 0 Calma -- -- 0 -- -- 97
2019-10-21 19:00:00 9.8 0 Calma 9 Oeste 0.2 -- -- 96
2019-10-21 18:00:00 10.4 6 Sudoeste 15 Oeste 0 -- -- 90
2019-10-21 17:00:00 11.9 2 Oeste 5 Este 1 -- -- 96
2019-10-21 16:00:00 12.5 3 Este 9 Este 0 -- -- 78
2019-10-21 15:00:00 13.4 3 Este 12 Este 0 -- -- 72
2019-10-21 14:00:00 14 4 Oeste 9 Noroeste 0 -- -- 73
2019-10-21 13:00:00 12.1 3 Oeste 5 Oeste 0 -- -- 79
2019-10-21 12:00:00 8.8 0 Calma -- -- 0 -- -- 100
2019-10-21 11:00:00 7.2 0 Calma -- -- 0 -- -- 100
2019-10-21 10:00:00 5.2 0 Calma -- -- 0 -- -- 100
2019-10-21 09:00:00 5.3 0 Calma 6 Sur 0 -- -- 100
2019-10-21 08:00:00 5.4 0 Calma 4 Oeste 0 -- -- 100
2019-10-21 07:00:00 4.8 0 Calma 3 Sur 0 -- -- 100
2019-10-21 06:00:00 4.4 0 Calma 4 Nordeste 0 -- -- 100
2019-10-21 05:00:00 4.2 0 Calma 3 Sur 0 -- -- 100
2019-10-21 04:00:00 4.6 2 Oeste 5 Sur 0 -- -- 100
2019-10-21 03:00:00 3.9 0 Calma -- -- 0 -- -- 100
2019-10-21 02:00:00 4.4 0 Calma -- -- 0 -- -- 100
2019-10-21 01:00:00 5.3 0 Calma 2 Noroeste 0 -- -- 100
2019-10-21 00:00:00 6.5 2 Sudoeste 6 Sur 0 -- -- 100
2019-10-20 23:00:00 6.3 0 Calma 6 Sur 0 -- -- 100
2019-10-20 22:00:00 6.3 0 Calma 5 Sudeste 0.2 -- -- 100
2019-10-20 21:00:00 7.8 3 Este 6 Este 0.6 -- -- 100
2019-10-20 20:00:00 8.1 3 Este 6 Este 1.2 -- -- 100
2019-10-20 19:00:00 8.5 0 Calma 8 Nordeste 1.2 -- -- 100
2019-10-20 18:00:00 9 3 Sur 6 Sur 2.2 -- -- 100
2019-10-20 17:00:00 9.2 3 Oeste 5 Oeste 2 -- -- 100
2019-10-20 16:00:00 9.2 2 Este 5 Este 1.2 -- -- 100
2019-10-20 15:00:00 9 0 Calma 6 Oeste 1.6 -- -- 100
2019-10-20 14:00:00 8.6 0 Calma 5 Oeste 0.2 -- -- 100
2019-10-20 13:00:00 8.3 0 Calma 0 Calma 0.4 -- -- 100
2019-10-20 12:00:00 8 0 Calma 4 Nordeste 0.4 -- -- 100
2019-10-20 11:00:00 7.7 0 Calma 6 Oeste 2.2 -- -- 100
2019-10-20 10:00:00 7.4 3 Noroeste 8 Noroeste 1 -- -- 100
2019-10-20 09:00:00 7.6 3 Oeste 10 Oeste 1 -- -- 99
2019-10-20 08:00:00 8.2 4 Oeste 10 Oeste 1 -- -- 99
2019-10-20 07:00:00 8.5 3 Oeste 16 Oeste 0.6 -- -- 100
2019-10-20 06:00:00 9 6 Oeste 20 Oeste 1.4 -- -- 99
2019-10-20 05:00:00 9.5 5 Oeste 11 Oeste 3.6 -- -- 100
2019-10-20 04:00:00 9.7 2 Oeste 6 Oeste 1.6 -- -- 100
2019-10-20 03:00:00 9.9 0 Calma 4 Oeste 0.8 -- -- 100
2019-10-20 02:00:00 10.1 0 Calma 5 Sudoeste 2 -- -- 100
2019-10-20 01:00:00 10.3 3 Oeste 8 Oeste 0.8 -- -- 100
2019-10-20 00:00:00 10.3 0 Calma 5 Oeste 0.8 -- -- 100
2019-10-19 23:00:00 10.4 0 Calma 5 Noroeste 1.4 -- -- 100
2019-10-19 22:00:00 10.6 3 Noroeste 5 Noroeste 0.8 -- -- 100
2019-10-19 21:00:00 10.8 0 Calma 5 Oeste 2.2 -- -- 100
2019-10-19 20:00:00 11.2 5 Sudoeste 18 Oeste 8.8 -- -- 97
2019-10-19 19:00:00 11.9 3 Sudoeste 12 Oeste 5.8 -- -- 99
2019-10-19 18:00:00 12.4 5 Noroeste 9 Noroeste 2 -- -- 100
2019-10-19 17:00:00 13 6 Noroeste 10 Noroeste 1 -- -- 98
2019-10-19 16:00:00 13.5 2 Noroeste 12 Noroeste 0 -- -- 98
2019-10-19 15:00:00 13.9 2 Oeste 12 Oeste 0.4 -- -- 97
2019-10-19 14:00:00 14 5 Noroeste 12 Noroeste 0.2 -- -- 95
2019-10-19 13:00:00 13.4 4 Noroeste 8 Noroeste 0 -- -- 97
2019-10-19 12:00:00 12.5 0 Calma -- -- 0.4 -- -- 99
2019-10-19 11:00:00 11.2 0 Calma -- -- 0 -- -- 100
2019-10-19 10:00:00 10.4 0 Calma -- -- 0 -- -- 100
2019-10-19 09:00:00 9.8 0 Calma 6 Sur 0 -- -- 99
2019-10-19 08:00:00 10.8 4 Oeste 11 Noroeste 0 -- -- 98
2019-10-19 07:00:00 11.5 0 Calma 14 Sudeste 0 -- -- 96
2019-10-19 06:00:00 11.6 4 Sudeste 30 Este 0 -- -- 93
2019-10-19 05:00:00 11.5 6 Oeste 23 Este 0 -- -- 94
2019-10-19 04:00:00 11 5 Este 22 Este 0 -- -- 100
2019-10-19 03:00:00 10.7 4 Sudoeste 9 Nordeste 0.2 -- -- 100
2019-10-19 02:00:00 10.8 3 Sudeste 7 Nordeste 0 -- -- 100
2019-10-19 01:00:00 10.9 0 Calma 6 Sur 1.2 -- -- 100
2019-10-19 00:00:00 11 0 Calma 8 Sur 0 -- -- 99
2019-10-18 23:00:00 10.9 4 Nordeste 8 Nordeste 0 -- -- 99
2019-10-18 22:00:00 11.5 0 Calma 5 Sur 0 -- -- 97
2019-10-18 21:00:00 12 2 Sudoeste 4 Oeste 0 -- -- 96
2019-10-18 20:00:00 12.9 0 Calma 5 Oeste 0 -- -- 93
2019-10-18 19:00:00 14 0 Calma 8 Oeste 0 -- -- 90
2019-10-18 18:00:00 15.1 2 Oeste 9 Este 0 -- -- 84
2019-10-18 17:00:00 16.1 5 Nordeste 12 Nordeste 0 -- -- 76
2019-10-18 16:00:00 16.5 0 Calma 7 Norte 0 -- -- 78
2019-10-18 15:00:00 16 0 Calma 7 Noroeste 0 -- -- 77
2019-10-18 14:00:00 15.6 2 Sudoeste 5 Oeste 0 -- -- 78
2019-10-18 13:00:00 14.5 0 Calma 6 Noroeste 0 -- -- 85
2019-10-18 12:00:00 13.7 0 Calma 3 Noroeste 0 -- -- 94
2019-10-18 11:00:00 12.7 0 Calma 4 Sur 0 -- -- 99
2019-10-18 10:00:00 11.9 0 Calma 5 Sur 0 -- -- 100
2019-10-18 09:00:00 11.8 0 Calma 3 Sur 0 -- -- 100
2019-10-18 08:00:00 12.1 0 Calma -- -- 0.2 -- -- 100
2019-10-18 07:00:00 12.2 0 Calma -- -- 0.4 -- -- 100
2019-10-18 06:00:00 12.3 0 Calma -- -- 0 -- -- 100
2019-10-18 05:00:00 12.4 0 Calma -- -- 0 -- -- 100
2019-10-18 04:00:00 12.5 0 Calma -- -- 0 -- -- 100
2019-10-18 03:00:00 12.5 0 Calma -- -- 0 -- -- 100
2019-10-18 02:00:00 12.4 0 Calma -- -- 0 -- -- 100
2019-10-18 01:00:00 12.4 0 Calma 3 Noroeste 0 -- -- 100
2019-10-18 00:00:00 12.6 0 Calma 3 Nordeste 0 -- -- 99
2019-10-17 23:00:00 12.6 2 Noroeste 7 Oeste 0 -- -- 99
2019-10-17 22:00:00 12.7 2 Noroeste 8 Noroeste 0 -- -- 99
2019-10-17 21:00:00 12.8 5 Noroeste 10 Noroeste 0 -- -- 98
2019-10-17 20:00:00 13.4 5 Noroeste 9 Noroeste 0.2 -- -- 96
2019-10-17 19:00:00 14.4 3 Oeste 7 Oeste 0 -- -- 94
2019-10-17 18:00:00 14.7 3 Oeste 8 Oeste 0 -- -- 92
2019-10-17 17:00:00 15.3 4 Norte 18 Oeste 0 -- -- 89
2019-10-17 16:00:00 17.5 6 Noroeste 23 Noroeste 0 -- -- 84
2019-10-17 15:00:00 19.9 6 Oeste 22 Noroeste 0 -- -- 73
2019-10-17 14:00:00 21.2 10 Oeste 25 Oeste 0 -- -- 68
2019-10-17 13:00:00 20.5 3 Sudoeste 6 Sur 0 -- -- 70
2019-10-17 12:00:00 17 2 Sudoeste 6 Norte 0 -- -- 86
2019-10-17 11:00:00 12.8 0 Calma 3 Sudeste 0 -- -- 100
2019-10-17 10:00:00 10.6 0 Calma 7 Sur 0 -- -- 100
2019-10-17 09:00:00 10.6 0 Calma 6 Nordeste 0 -- -- 95
2019-10-17 08:00:00 12.7 2 Sudoeste 21 Este 0 -- -- 89
2019-10-17 07:00:00 15.1 9 Este 26 Este 0 -- -- 77
2019-10-17 06:00:00 13 0 Calma 12 Nordeste 0 -- -- 95
2019-10-17 05:00:00 12.8 3 Sudoeste 8 Sudoeste 0 -- -- 98
2019-10-17 04:00:00 13.6 2 Sudeste 6 Este 0 -- -- 95
2019-10-17 03:00:00 15.1 2 Oeste 16 Este 0 -- -- 86
2019-10-17 02:00:00 16.9 7 Nordeste 22 Sudeste 0 -- -- 72
2019-10-17 01:00:00 13.2 5 Oeste 18 Norte 0.2 -- -- 96
2019-10-17 00:00:00 13.1 4 Oeste 13 Sudoeste 0 -- -- 96
2019-10-16 23:00:00 12.9 5 Oeste 13 Noroeste 0 -- -- 97
2019-10-16 22:00:00 13.6 4 Noroeste 30 Este 0 -- -- 93
2019-10-16 21:00:00 13.9 5 Sudoeste 30 Este 0 -- -- 91
2019-10-16 20:00:00 13.7 5 Nordeste 18 Este 2.8 -- -- 93
2019-10-16 19:00:00 15.3 0 Calma 6 Oeste 0.4 -- -- 88
2019-10-16 18:00:00 17 6 Sudeste 18 Este 0 -- -- 76
2019-10-16 17:00:00 19.7 6 Este 17 Este 0 -- -- 65
2019-10-16 16:00:00 18.9 5 Este 20 Este 0 -- -- 64
2019-10-16 15:00:00 20 5 Nordeste 22 Nordeste 0 -- -- 59
2019-10-16 14:00:00 20.8 7 Este 22 Nordeste 0 -- -- 59
2019-10-16 13:00:00 17.5 3 Sudoeste 13 Nordeste 0 -- -- 82
2019-10-16 12:00:00 15.1 4 Sur 30 Nordeste 0 -- -- 85
2019-10-16 11:00:00 12.4 5 Sudeste 25 Este 0 -- -- 94
2019-10-16 10:00:00 11.6 0 Calma 0 Calma 0.2 -- -- 100
2019-10-16 09:00:00 10.6 0 Calma -- -- 0 -- -- 100
2019-10-16 08:00:00 9.9 0 Calma 0 Calma 0 -- -- 100
2019-10-16 07:00:00 9.6 0 Calma 6 Noroeste 0 -- -- 99
2019-10-16 06:00:00 9.3 0 Calma 7 Este 0 -- -- 99
2019-10-16 05:00:00 9.4 0 Calma 5 Sudoeste 0 -- -- 98
2019-10-16 04:00:00 9.3 2 Este 7 Sur 0 -- -- 97
2019-10-16 03:00:00 9.3 0 Calma 6 Sur 0 -- -- 95
2019-10-16 02:00:00 9.5 2 Oeste 6 Sudoeste 0 -- -- 95
2019-10-16 01:00:00 9.5 0 Calma 9 Este 0 -- -- 95
2019-10-16 00:00:00 9.9 3 Sudoeste 8 Sur 0 -- -- 93
2019-10-15 23:00:00 10.5 0 Calma 4 Sudoeste 0 -- -- 89
2019-10-15 22:00:00 11.8 2 Oeste 21 Este 0 -- -- 82
2019-10-15 21:00:00 13.6 13 Este 26 Este 0 -- -- 69
2019-10-15 20:00:00 12.6 6 Este 18 Este 0 -- -- 76
2019-10-15 19:00:00 14.3 10 Este 23 Este 0 -- -- 65
2019-10-15 18:00:00 16.1 2 Noroeste 13 Este 0 -- -- 71
2019-10-15 17:00:00 16.9 0 Calma 18 Este 0 -- -- 71
2019-10-15 16:00:00 17.2 8 Este 17 Este 0 -- -- 54
2019-10-15 15:00:00 17.3 8 Este 17 Este 0 -- -- 52
2019-10-15 14:00:00 17 5 Este 13 Este 0 -- -- 59
2019-10-15 13:00:00 15.6 4 Sudeste 10 Este 0 -- -- 69
2019-10-15 12:00:00 12.3 2 Sur 5 Sur 0 -- -- 98
2019-10-15 11:00:00 7.8 0 Calma -- -- 0 -- -- 100
2019-10-15 10:00:00 6 0 Calma -- -- 0 -- -- 100
2019-10-15 09:00:00 4.7 0 Calma 4 Este 0 -- -- 100
2019-10-15 08:00:00 4.3 0 Calma 6 Sur 0 -- -- 100
2019-10-15 07:00:00 3.4 0 Calma 4 Sur 0 -- -- 100
2019-10-15 06:00:00 3.9 0 Calma 5 Sur 0 -- -- 100
2019-10-15 05:00:00 4.1 0 Calma 4 Este 0 -- -- 100
2019-10-15 04:00:00 5.1 0 Calma 5 Sudeste 0 -- -- 100
2019-10-15 03:00:00 6.1 0 Calma 4 Sudeste 0 -- -- 100
2019-10-15 02:00:00 7 0 Calma 4 Sudoeste 0 -- -- 100
2019-10-15 01:00:00 6.8 0 Calma 4 Este 0 -- -- 99
2019-10-15 00:00:00 7.6 0 Calma 6 Sur 0 -- -- 98